Time,TemperatureF,DewpointF,PressureIn,WindDirection,WindDirectionDegrees,WindSpeedMPH,WindSpeedGustMPH,Humidity,HourlyPrecipIn,Conditions,Clouds,dailyrainin,SoftwareType,DateUTC
2013-03-11 00:00:00,42.5,38.9,30.08,North,0,0.0,0.0,87,0.00,,,0.00,WUHU216HW,2013-03-11 07:00:00,
2013-03-11 00:05:00,42.5,38.9,30.08,North,0,0.0,0.0,87,0.00,,,0.00,WUHU216HW,2013-03-11 07:05:00,
2013-03-11 00:10:00,42.5,38.9,30.08,North,0,0.0,0.0,87,0.00,,,0.00,WUHU216HW,2013-03-11 07:10:00,
2013-03-11 00:30:00,42.3,39.0,30.09,North,0,0.0,0.0,88,0.00,,,0.00,WUHU216HW,2013-03-11 07:30:00,
2013-03-11 00:35:00,42.3,39.0,30.09,North,0,0.0,0.0,88,0.00,,,0.00,WUHU216HW,2013-03-11 07:35:00,
2013-03-11 00:40:00,42.3,39.0,30.09,North,0,0.0,0.0,88,0.00,,,0.00,WUHU216HW,2013-03-11 07:40:00,
2013-03-11 01:00:00,42.3,39.0,30.08,North,0,0.0,0.0,88,0.00,,,0.00,WUHU216HW,2013-03-11 08:00:00,
2013-03-11 01:05:00,42.3,39.0,30.08,North,0,0.0,0.0,88,0.00,,,0.00,WUHU216HW,2013-03-11 08:05:00,
2013-03-11 01:10:00,42.3,39.0,30.08,North,0,0.0,0.0,88,0.00,,,0.00,WUHU216HW,2013-03-11 08:10:00,
2013-03-11 01:30:00,42.1,38.8,30.08,North,0,0.0,0.0,88,0.00,,,0.00,WUHU216HW,2013-03-11 08:30:00,
2013-03-11 01:35:00,42.1,38.8,30.08,North,0,0.0,0.0,88,0.00,,,0.00,WUHU216HW,2013-03-11 08:35:00,
2013-03-11 01:40:00,42.1,38.8,30.08,North,0,0.0,0.0,88,0.00,,,0.00,WUHU216HW,2013-03-11 08:40:00,
2013-03-11 02:00:00,42.1,38.8,30.09,North,0,0.0,0.0,88,0.00,,,0.00,WUHU216HW,2013-03-11 09:00:00,
2013-03-11 02:05:00,42.1,38.8,30.09,North,0,0.0,0.0,88,0.00,,,0.00,WUHU216HW,2013-03-11 09:05:00,
2013-03-11 02:10:00,42.1,38.8,30.09,North,0,0.0,0.0,88,0.00,,,0.00,WUHU216HW,2013-03-11 09:10:00,
2013-03-11 02:30:00,42.1,38.8,30.08,North,0,0.0,0.0,88,0.00,,,0.00,WUHU216HW,2013-03-11 09:30:00,
2013-03-11 02:35:00,42.1,38.8,30.08,North,0,0.0,0.0,88,0.00,,,0.00,WUHU216HW,2013-03-11 09:35:00,
2013-03-11 02:40:00,42.1,38.8,30.08,North,0,0.0,0.0,88,0.00,,,0.00,WUHU216HW,2013-03-11 09:40:00,
2013-03-11 03:00:00,41.8,38.4,30.08,North,0,0.0,0.0,88,0.00,,,0.00,WUHU216HW,2013-03-11 10:00:00,
2013-03-11 03:05:00,41.8,38.4,30.08,North,0,0.0,0.0,88,0.00,,,0.00,WUHU216HW,2013-03-11 10:05:00,
2013-03-11 03:10:00,41.8,38.4,30.08,North,0,0.0,0.0,88,0.00,,,0.00,WUHU216HW,2013-03-11 10:10:00,
2013-03-11 03:30:00,41.4,38.1,30.07,North,0,0.0,0.0,88,0.00,,,0.00,WUHU216HW,2013-03-11 10:30:00,
2013-03-11 03:35:00,41.4,38.1,30.07,North,0,0.0,0.0,88,0.00,,,0.00,WUHU216HW,2013-03-11 10:35:00,
2013-03-11 03:40:00,41.4,38.1,30.07,North,0,0.0,0.0,88,0.00,,,0.00,WUHU216HW,2013-03-11 10:40:00,
2013-03-11 04:00:00,41.2,37.9,30.07,North,0,0.0,0.0,88,0.00,,,0.00,WUHU216HW,2013-03-11 11:00:00,
2013-03-11 04:05:00,41.2,37.9,30.07,North,0,0.0,0.0,88,0.00,,,0.00,WUHU216HW,2013-03-11 11:05:00,
2013-03-11 04:10:00,41.2,37.9,30.07,North,0,0.0,0.0,88,0.00,,,0.00,WUHU216HW,2013-03-11 11:10:00,
2013-03-11 04:30:00,40.7,37.4,30.07,North,0,0.0,0.0,88,0.00,,,0.00,WUHU216HW,2013-03-11 11:30:00,
2013-03-11 04:35:00,40.7,37.4,30.07,North,0,0.0,0.0,88,0.00,,,0.00,WUHU216HW,2013-03-11 11:35:00,
2013-03-11 04:40:00,40.7,37.4,30.07,North,0,0.0,0.0,88,0.00,,,0.00,WUHU216HW,2013-03-11 11:40:00,
2013-03-11 05:00:00,40.3,37.4,30.06,North,0,0.0,0.0,89,0.00,,,0.00,WUHU216HW,2013-03-11 12:00:00,
2013-03-11 05:05:00,40.3,37.4,30.06,North,0,0.0,0.0,89,0.00,,,0.00,WUHU216HW,2013-03-11 12:05:00,
2013-03-11 05:10:00,40.3,37.4,30.06,North,0,0.0,0.0,89,0.00,,,0.00,WUHU216HW,2013-03-11 12:10:00,
2013-03-11 05:30:00,40.1,37.2,30.07,North,0,0.0,0.0,89,0.00,,,0.00,WUHU216HW,2013-03-11 12:30:00,
2013-03-11 05:35:00,40.1,37.2,30.07,North,0,0.0,0.0,89,0.00,,,0.00,WUHU216HW,2013-03-11 12:35:00,
2013-03-11 05:40:00,40.1,37.2,30.07,North,0,0.0,0.0,89,0.00,,,0.00,WUHU216HW,2013-03-11 12:40:00,
2013-03-11 06:00:00,40.0,37.0,30.07,North,0,0.0,0.0,89,0.00,,,0.00,WUHU216HW,2013-03-11 13:00:00,
2013-03-11 06:05:00,40.0,37.0,30.07,North,0,0.0,0.0,89,0.00,,,0.00,WUHU216HW,2013-03-11 13:05:00,
2013-03-11 06:10:00,40.0,37.0,30.07,North,0,0.0,0.0,89,0.00,,,0.00,WUHU216HW,2013-03-11 13:10:00,
2013-03-11 06:30:00,40.0,37.3,30.06,North,0,0.0,0.0,90,0.00,,,0.00,WUHU216HW,2013-03-11 13:30:00,
2013-03-11 06:35:00,40.0,37.3,30.06,North,0,0.0,0.0,90,0.00,,,0.00,WUHU216HW,2013-03-11 13:35:00,
2013-03-11 06:40:00,40.0,37.3,30.06,North,0,0.0,0.0,90,0.00,,,0.00,WUHU216HW,2013-03-11 13:40:00,
2013-03-11 07:00:00,39.8,37.1,30.06,North,0,0.0,0.0,90,0.00,,,0.00,WUHU216HW,2013-03-11 14:00:00,
2013-03-11 07:05:00,39.8,37.1,30.06,North,0,0.0,0.0,90,0.00,,,0.00,WUHU216HW,2013-03-11 14:05:00,
2013-03-11 07:10:00,39.8,37.1,30.06,North,0,0.0,0.0,90,0.00,,,0.00,WUHU216HW,2013-03-11 14:10:00,
2013-03-11 07:30:00,39.6,36.9,30.07,North,0,0.0,0.0,90,0.00,,,0.00,WUHU216HW,2013-03-11 14:30:00,
2013-03-11 07:35:00,39.6,36.9,30.07,North,0,0.0,0.0,90,0.00,,,0.00,WUHU216HW,2013-03-11 14:35:00,
2013-03-11 07:40:00,39.6,36.9,30.07,North,0,0.0,0.0,90,0.00,,,0.00,WUHU216HW,2013-03-11 14:40:00,
2013-03-11 08:00:00,39.6,36.9,30.06,North,0,0.0,0.0,90,0.00,,,0.00,WUHU216HW,2013-03-11 15:00:00,
2013-03-11 08:05:00,39.6,36.9,30.06,North,0,0.0,0.0,90,0.00,,,0.00,WUHU216HW,2013-03-11 15:05:00,
2013-03-11 08:10:00,39.6,36.9,30.06,North,0,0.0,0.0,90,0.00,,,0.00,WUHU216HW,2013-03-11 15:10:00,
2013-03-11 08:30:00,40.0,37.3,30.06,North,0,0.0,0.0,90,0.00,,,0.00,WUHU216HW,2013-03-11 15:30:00,
2013-03-11 08:35:00,40.0,37.3,30.06,North,0,0.0,0.0,90,0.00,,,0.00,WUHU216HW,2013-03-11 15:35:00,
2013-03-11 08:40:00,40.0,37.3,30.06,North,0,0.0,0.0,90,0.00,,,0.00,WUHU216HW,2013-03-11 15:40:00,
2013-03-11 09:00:00,40.3,37.6,30.06,North,0,0.0,0.0,90,0.00,,,0.00,WUHU216HW,2013-03-11 16:00:00,
2013-03-11 09:05:00,40.5,37.8,30.06,North,0,0.0,0.0,90,0.00,,,0.00,WUHU216HW,2013-03-11 16:05:00,
2013-03-11 09:10:00,40.5,37.8,30.06,North,0,0.0,0.0,90,0.00,,,0.00,WUHU216HW,2013-03-11 16:10:00,
2013-03-11 09:30:00,41.4,39.0,30.06,North,0,0.0,0.0,91,0.00,,,0.00,WUHU216HW,2013-03-11 16:30:00,
2013-03-11 09:35:00,41.4,39.0,30.06,North,0,0.0,0.0,91,0.00,,,0.00,WUHU216HW,2013-03-11 16:35:00,
2013-03-11 09:40:00,41.4,39.0,30.06,North,0,0.0,0.0,91,0.00,,,0.00,WUHU216HW,2013-03-11 16:40:00,
2013-03-11 10:00:00,42.8,40.1,30.07,North,0,0.0,0.0,90,0.00,,,0.00,WUHU216HW,2013-03-11 17:00:00,
2013-03-11 10:05:00,42.8,40.1,30.07,North,0,0.0,0.0,90,0.00,,,0.00,WUHU216HW,2013-03-11 17:05:00,
2013-03-11 10:10:00,42.8,40.1,30.07,North,0,0.0,0.0,90,0.00,,,0.00,WUHU216HW,2013-03-11 17:10:00,
2013-03-11 10:30:00,44.1,41.4,30.06,North,0,0.0,0.0,90,0.00,,,0.00,WUHU216HW,2013-03-11 17:30:00,
2013-03-11 10:35:00,44.3,41.6,30.06,North,0,0.0,0.0,90,0.00,,,0.00,WUHU216HW,2013-03-11 17:35:00,
2013-03-11 10:40:00,44.3,41.6,30.06,North,0,0.0,0.0,90,0.00,,,0.00,WUHU216HW,2013-03-11 17:40:00,
2013-03-11 11:00:00,44.5,41.1,30.06,North,0,0.0,0.0,88,0.00,,,0.00,WUHU216HW,2013-03-11 18:00:00,
2013-03-11 11:05:00,44.5,41.1,30.06,North,0,0.0,0.0,88,0.00,,,0.00,WUHU216HW,2013-03-11 18:05:00,
2013-03-11 11:10:00,44.5,41.1,30.06,North,0,0.0,0.0,88,0.00,,,0.00,WUHU216HW,2013-03-11 18:10:00,
2013-03-11 11:30:00,45.5,42.2,30.06,North,0,0.0,0.0,88,0.00,,,0.00,WUHU216HW,2013-03-11 18:30:00,
2013-03-11 11:35:00,45.7,42.4,30.06,North,0,0.0,0.0,88,0.00,,,0.00,WUHU216HW,2013-03-11 18:35:00,
2013-03-11 11:40:00,45.7,42.4,30.06,North,0,0.0,0.0,88,0.00,,,0.00,WUHU216HW,2013-03-11 18:40:00,
2013-03-11 12:00:00,46.6,42.7,30.05,North,0,0.0,0.0,86,0.00,,,0.00,WUHU216HW,2013-03-11 19:00:00,
2013-03-11 12:05:00,46.8,42.8,30.05,North,0,0.0,0.0,86,0.00,,,0.00,WUHU216HW,2013-03-11 19:05:00,
2013-03-11 12:10:00,46.8,42.8,30.05,North,0,0.0,0.0,86,0.00,,,0.00,WUHU216HW,2013-03-11 19:10:00,
2013-03-11 12:30:00,47.5,42.9,30.04,North,0,0.0,0.0,84,0.00,,,0.00,WUHU216HW,2013-03-11 19:30:00,
2013-03-11 12:35:00,47.3,42.8,30.04,North,0,0.0,0.0,84,0.00,,,0.00,WUHU216HW,2013-03-11 19:35:00,
2013-03-11 12:40:00,47.3,42.8,30.04,North,0,0.0,0.0,84,0.00,,,0.00,WUHU216HW,2013-03-11 19:40:00,
2013-03-11 13:00:00,47.5,41.9,30.02,North,0,0.0,0.0,81,0.00,,,0.00,WUHU216HW,2013-03-11 20:00:00,
2013-03-11 13:05:00,47.5,41.9,30.02,North,0,0.0,0.0,81,0.00,,,0.00,WUHU216HW,2013-03-11 20:05:00,
2013-03-11 13:10:00,47.5,41.9,30.02,North,0,0.0,0.0,81,0.00,,,0.00,WUHU216HW,2013-03-11 20:10:00,
2013-03-11 13:30:00,48.1,42.1,30.02,North,0,0.0,0.0,80,0.00,,,0.00,WUHU216HW,2013-03-11 20:30:00,
2013-03-11 13:35:00,48.1,42.1,30.02,North,0,0.0,0.0,80,0.00,,,0.00,WUHU216HW,2013-03-11 20:35:00,
2013-03-11 13:40:00,48.1,42.1,30.02,North,0,0.0,0.0,80,0.00,,,0.00,WUHU216HW,2013-03-11 20:40:00,
2013-03-11 14:00:00,48.2,42.3,30.00,North,0,0.0,0.0,80,0.00,,,0.00,WUHU216HW,2013-03-11 21:00:00,
2013-03-11 14:05:00,48.2,42.3,30.00,North,0,0.0,0.0,80,0.00,,,0.00,WUHU216HW,2013-03-11 21:05:00,
2013-03-11 14:10:00,48.2,42.3,30.00,North,0,0.0,0.0,80,0.00,,,0.00,WUHU216HW,2013-03-11 21:10:00,
2013-03-11 14:30:00,49.0,42.3,29.98,North,0,0.0,0.0,78,0.00,,,0.00,WUHU216HW,2013-03-11 21:30:00,
2013-03-11 14:35:00,49.0,42.3,29.98,North,0,0.0,0.0,78,0.00,,,0.00,WUHU216HW,2013-03-11 21:35:00,
2013-03-11 14:40:00,49.0,42.3,29.98,North,0,0.0,0.0,78,0.00,,,0.00,WUHU216HW,2013-03-11 21:40:00,
2013-03-11 15:00:00,49.3,42.7,29.97,North,0,0.0,0.0,78,0.00,,,0.00,WUHU216HW,2013-03-11 22:00:00,
2013-03-11 15:05:00,49.3,42.7,29.97,North,0,0.0,0.0,78,0.00,,,0.00,WUHU216HW,2013-03-11 22:05:00,
2013-03-11 15:10:00,49.3,42.7,29.97,North,0,0.0,0.0,78,0.00,,,0.00,WUHU216HW,2013-03-11 22:10:00,
2013-03-11 15:30:00,49.5,42.2,29.96,North,0,0.0,0.0,76,0.00,,,0.00,WUHU216HW,2013-03-11 22:30:00,
2013-03-11 15:35:00,49.5,42.2,29.96,North,0,0.0,0.0,76,0.00,,,0.00,WUHU216HW,2013-03-11 22:35:00,
2013-03-11 15:40:00,49.5,42.2,29.96,North,0,0.0,0.0,76,0.00,,,0.00,WUHU216HW,2013-03-11 22:40:00,
2013-03-11 16:00:00,49.7,42.0,29.96,North,0,0.0,0.0,75,0.00,,,0.00,WUHU216HW,2013-03-11 23:00:00,
2013-03-11 16:05:00,49.5,41.9,29.96,North,0,0.0,0.0,75,0.00,,,0.00,WUHU216HW,2013-03-11 23:05:00,
2013-03-11 16:10:00,49.5,41.9,29.96,North,0,0.0,0.0,75,0.00,,,0.00,WUHU216HW,2013-03-11 23:10:00,
2013-03-11 16:30:00,49.3,42.0,29.96,North,0,0.0,0.0,76,0.00,,,0.00,WUHU216HW,2013-03-11 23:30:00,
2013-03-11 16:35:00,49.3,42.0,29.96,North,0,0.0,0.0,76,0.00,,,0.00,WUHU216HW,2013-03-11 23:35:00,
2013-03-11 16:40:00,49.3,42.0,29.96,North,0,0.0,0.0,76,0.00,,,0.00,WUHU216HW,2013-03-11 23:40:00,
2013-03-11 17:00:00,49.1,41.9,29.94,North,0,0.0,0.0,76,0.00,,,0.00,WUHU216HW,2013-03-12 00:00:00,
2013-03-11 17:05:00,49.1,41.9,29.94,North,0,0.0,0.0,76,0.00,,,0.00,WUHU216HW,2013-03-12 00:05:00,
2013-03-11 17:10:00,49.1,41.9,29.94,North,0,0.0,0.0,76,0.00,,,0.00,WUHU216HW,2013-03-12 00:10:00,
2013-03-11 17:30:00,48.8,41.1,29.94,North,0,0.0,0.0,75,0.00,,,0.00,WUHU216HW,2013-03-12 00:30:00,
2013-03-11 17:35:00,48.8,41.1,29.94,North,0,0.0,0.0,75,0.00,,,0.00,WUHU216HW,2013-03-12 00:35:00,
2013-03-11 17:40:00,48.8,41.1,29.94,North,0,0.0,0.0,75,0.00,,,0.00,WUHU216HW,2013-03-12 00:40:00,
2013-03-11 18:00:00,48.4,40.8,29.92,North,0,0.0,0.0,75,0.00,,,0.00,WUHU216HW,2013-03-12 01:00:00,
2013-03-11 18:05:00,48.4,40.8,29.92,North,0,0.0,0.0,75,0.00,,,0.00,WUHU216HW,2013-03-12 01:05:00,
2013-03-11 18:10:00,48.4,40.8,29.92,North,0,0.0,0.0,75,0.00,,,0.00,WUHU216HW,2013-03-12 01:10:00,
2013-03-11 18:30:00,48.1,40.8,29.91,North,0,0.0,0.0,76,0.00,,,0.00,WUHU216HW,2013-03-12 01:30:00,
2013-03-11 18:35:00,48.1,40.8,29.91,North,0,0.0,0.0,76,0.00,,,0.00,WUHU216HW,2013-03-12 01:35:00,
2013-03-11 18:40:00,48.1,40.8,29.91,North,0,0.0,0.0,76,0.00,,,0.00,WUHU216HW,2013-03-12 01:40:00,
2013-03-11 19:00:00,47.7,40.8,29.90,North,0,0.0,0.0,77,0.00,,,0.00,WUHU216HW,2013-03-12 02:00:00,
2013-03-11 19:05:00,47.7,40.8,29.90,North,0,0.0,0.0,77,0.00,,,0.00,WUHU216HW,2013-03-12 02:05:00,
2013-03-11 19:10:00,47.7,40.8,29.90,North,0,0.0,0.0,77,0.00,,,0.00,WUHU216HW,2013-03-12 02:10:00,
2013-03-11 19:30:00,47.2,40.7,29.88,North,0,0.0,0.0,78,0.00,,,0.00,WUHU216HW,2013-03-12 02:30:00,
2013-03-11 19:35:00,47.2,40.7,29.88,North,0,0.0,0.0,78,0.00,,,0.00,WUHU216HW,2013-03-12 02:35:00,
2013-03-11 19:40:00,47.2,40.7,29.88,North,0,0.0,0.0,78,0.00,,,0.00,WUHU216HW,2013-03-12 02:40:00,
2013-03-11 20:00:00,46.8,40.0,29.86,North,0,0.0,0.0,77,0.00,,,0.00,WUHU216HW,2013-03-12 03:00:00,
2013-03-11 20:05:00,46.8,40.0,29.86,North,0,0.0,0.0,77,0.00,,,0.00,WUHU216HW,2013-03-12 03:05:00,
2013-03-11 20:10:00,46.8,40.0,29.86,North,0,0.0,0.0,77,0.00,,,0.00,WUHU216HW,2013-03-12 03:10:00,
2013-03-11 20:30:00,46.4,40.0,29.86,North,0,0.0,0.0,78,0.00,,,0.00,WUHU216HW,2013-03-12 03:30:00,
2013-03-11 20:35:00,46.4,40.3,29.86,North,0,0.0,0.0,79,0.00,,,0.00,WUHU216HW,2013-03-12 03:35:00,
2013-03-11 20:40:00,46.4,40.3,29.86,North,0,0.0,0.0,79,0.00,,,0.00,WUHU216HW,2013-03-12 03:40:00,
2013-03-11 21:00:00,46.1,40.0,29.86,North,0,0.0,0.0,79,0.00,,,0.00,WUHU216HW,2013-03-12 04:00:00,
2013-03-11 21:05:00,46.1,40.0,29.86,North,0,0.0,0.0,79,0.00,,,0.00,WUHU216HW,2013-03-12 04:05:00,
2013-03-11 21:30:00,45.7,40.2,29.86,North,0,0.0,0.0,81,0.00,,,0.00,WUHU216HW,2013-03-12 04:30:00,
2013-03-11 21:35:00,45.7,40.2,29.86,North,0,0.0,0.0,81,0.00,,,0.00,WUHU216HW,2013-03-12 04:35:00,
2013-03-11 21:40:00,45.7,40.2,29.86,North,0,0.0,0.0,81,0.00,,,0.00,WUHU216HW,2013-03-12 04:40:00,
2013-03-11 22:00:00,45.4,40.5,29.85,North,0,0.0,0.0,83,0.00,,,0.00,WUHU216HW,2013-03-12 05:00:00,
2013-03-11 22:05:00,45.4,40.5,29.85,North,0,0.0,0.0,83,0.00,,,0.00,WUHU216HW,2013-03-12 05:05:00,
2013-03-11 22:10:00,45.4,40.5,29.85,North,0,0.0,0.0,83,0.00,,,0.00,WUHU216HW,2013-03-12 05:10:00,
2013-03-11 22:30:00,44.8,40.3,29.85,North,0,0.0,0.0,84,0.00,,,0.00,WUHU216HW,2013-03-12 05:30:00,
2013-03-11 22:35:00,44.8,40.3,29.85,North,0,0.0,0.0,84,0.00,,,0.00,WUHU216HW,2013-03-12 05:35:00,
2013-03-11 22:40:00,44.8,40.3,29.85,North,0,0.0,0.0,84,0.00,,,0.00,WUHU216HW,2013-03-12 05:40:00,
2013-03-11 23:00:00,44.1,39.9,29.83,North,0,0.0,0.0,85,0.00,,,0.00,WUHU216HW,2013-03-12 06:00:00,
2013-03-11 23:05:00,44.3,40.1,29.83,North,0,0.0,0.0,85,0.00,,,0.00,WUHU216HW,2013-03-12 06:05:00,
2013-03-11 23:10:00,44.3,40.1,29.83,North,0,0.0,0.0,85,0.00,,,0.00,WUHU216HW,2013-03-12 06:10:00,
2013-03-11 23:30:00,43.7,39.8,29.81,North,0,0.0,0.0,86,0.00,,,0.00,WUHU216HW,2013-03-12 06:30:00,
2013-03-11 23:35:00,43.7,39.8,29.81,North,0,0.0,0.0,86,0.00,,,0.00,WUHU216HW,2013-03-12 06:35:00,
2013-03-11 23:40:00,43.7,39.8,29.81,North,0,0.0,0.0,86,0.00,,,0.00,WUHU216HW,2013-03-12 06:40:00,